Time;durP1;ratioP1;P1;durP2;ratioP2;P2;SDS_P1;SDS_P2;PMS_P1;PMS_P2;Temp;Humidity;BMP_temperature;BMP_pressure;BME280_temperature;BME280_humidity;BME280_pressure;Samples;Min_cycle;Max_cycle;Signal;HPM_P1;HPM_P2
2023/01/31 00:00:56;;;;;;;22.70;5.15;;;3.30;99.90;;;;;;5110244;27;20040;-37
2023/01/31 00:03:24;;;;;;;21.70;6.13;;;3.40;99.90;;;;;;5103441;28;20064;-37
2023/01/31 00:05:50;;;;;;;19.95;4.28;;;3.30;99.90;;;;;;5074152;28;20035;-37
2023/01/31 00:08:17;;;;;;;12.32;3.10;;;3.30;99.90;;;;;;5098230;28;20040;-37
2023/01/31 00:10:43;;;;;;;16.65;4.38;;;3.30;99.90;;;;;;5089416;28;20032;-39
2023/01/31 00:13:08;;;;;;;11.63;3.10;;;3.20;99.90;;;;;;5095687;28;20044;-36
2023/01/31 00:15:34;;;;;;;16.10;3.72;;;3.20;99.90;;;;;;5104752;28;20141;-37
2023/01/31 00:18:00;;;;;;;18.48;4.03;;;3.20;99.90;;;;;;5096446;28;20404;-37
2023/01/31 00:20:39;;;;;;;14.55;3.88;;;3.10;99.90;;;;;;5103363;28;20039;-37
2023/01/31 00:23:06;;;;;;;29.42;6.55;;;3.10;99.90;;;;;;5109154;28;20040;-36
2023/01/31 01:14:30;;;;;;;17.00;3.10;;;2.50;99.90;;;;;;4990329;28;20046;-37
2023/01/31 01:16:57;;;;;;;16.52;3.15;;;2.50;99.90;;;;;;5027681;28;20052;-37
2023/01/31 01:19:23;;;;;;;15.27;3.10;;;2.40;99.90;;;;;;5074858;28;20036;-36
2023/01/31 01:21:49;;;;;;;16.23;3.20;;;2.40;99.90;;;;;;5076553;28;20081;-41
2023/01/31 01:24:17;;;;;;;12.95;2.97;;;2.40;99.90;;;;;;5065380;28;20028;-37
2023/01/31 01:26:44;;;;;;;12.07;3.25;;;2.40;99.90;;;;;;5092961;28;20031;-37
2023/01/31 01:29:11;;;;;;;18.15;3.63;;;2.40;99.90;;;;;;5065143;28;20044;-37
2023/01/31 01:31:38;;;;;;;16.45;3.60;;;2.40;99.90;;;;;;5066913;28;20036;-37
2023/01/31 01:34:07;;;;;;;17.33;3.15;;;2.40;99.90;;;;;;5070780;28;20040;-37
2023/01/31 01:36:34;;;;;;;14.07;2.40;;;2.40;99.90;;;;;;5084340;28;20511;-37
2023/01/31 01:39:01;;;;;;;15.32;3.03;;;2.50;99.90;;;;;;5088427;28;20044;-37
2023/01/31 01:41:26;;;;;;;12.18;3.35;;;2.50;99.90;;;;;;5073468;28;20032;-37
2023/01/31 01:43:57;;;;;;;13.18;2.88;;;2.50;99.90;;;;;;5065230;28;20520;-38
2023/01/31 01:46:37;;;;;;;15.07;2.83;;;2.50;99.90;;;;;;5068995;28;20044;-37
2023/01/31 01:49:29;;;;;;;13.00;3.38;;;2.50;99.90;;;;;;5058109;28;20129;-37
2023/01/31 01:51:58;;;;;;;11.85;2.58;;;2.50;99.90;;;;;;5069070;28;20169;-37
2023/01/31 01:54:33;;;;;;;12.73;2.95;;;2.50;99.90;;;;;;5067829;28;20497;-37
2023/01/31 01:57:01;;;;;;;11.75;2.85;;;2.50;99.90;;;;;;5113341;22;20478;-84
2023/01/31 01:59:35;;;;;;;15.48;2.92;;;2.50;99.90;;;;;;5080323;28;20039;-84
2023/01/31 02:02:02;;;;;;;15.27;3.50;;;2.40;99.90;;;;;;5098371;28;20122;-84
2023/01/31 02:04:33;;;;;;;11.73;2.88;;;2.50;99.90;;;;;;5089910;28;20031;-84
2023/01/31 02:06:59;;;;;;;14.15;3.83;;;2.50;99.90;;;;;;5105506;28;20470;-84
2023/01/31 02:10:00;;;;;;;13.90;2.83;;;2.40;99.90;;;;;;5086872;28;20031;-84
2023/01/31 02:12:27;;;;;;;16.55;2.55;;;2.40;99.90;;;;;;5100971;28;20107;-84
2023/01/31 02:14:52;;;;;;;18.10;3.33;;;2.30;99.90;;;;;;5119638;22;20415;-83
2023/01/31 02:17:19;;;;;;;12.73;2.72;;;2.30;99.90;;;;;;5073699;28;20055;-82
2023/01/31 02:20:09;;;;;;;11.90;2.38;;;2.30;99.90;;;;;;5074073;28;20036;-82
2023/01/31 02:22:53;;;;;;;15.02;2.60;;;2.30;99.90;;;;;;5077438;28;20065;-82
2023/01/31 02:25:34;;;;;;;11.95;2.75;;;2.20;99.90;;;;;;5056904;28;20040;-82
2023/01/31 02:28:34;;;;;;;12.05;2.47;;;2.20;99.90;;;;;;5057707;28;20044;-83
2023/01/31 02:31:12;;;;;;;12.23;2.38;;;2.20;99.90;;;;;;5057024;28;20103;-83
2023/01/31 02:33:57;;;;;;;15.05;2.90;;;2.10;99.90;;;;;;5040226;28;20045;-82
2023/01/31 02:36:41;;;;;;;14.07;2.83;;;2.10;99.90;;;;;;5040296;28;20040;-82
2023/01/31 02:39:14;;;;;;;18.38;3.80;;;2.20;99.90;;;;;;5041682;28;20040;-82
2023/01/31 02:41:43;;;;;;;13.82;2.50;;;2.30;99.90;;;;;;5038800;28;20037;-83
2023/01/31 02:47:44;;;;;;;20.08;3.28;;;2.40;99.90;;;;;;5059915;28;20071;-83
2023/01/31 02:50:23;;;;;;;14.98;2.58;;;2.50;99.90;;;;;;5061447;28;20128;-82
2023/01/31 02:53:13;;;;;;;11.60;2.65;;;2.50;99.90;;;;;;5055293;28;20404;-82
2023/01/31 02:58:25;;;;;;;;;;;2.60;99.90;;;;;;5061533;28;20573;-82
2023/01/31 03:00:56;;;;;;;11.52;2.20;;;2.70;99.90;;;;;;5058611;28;19924;-83
2023/01/31 03:03:25;;;;;;;16.98;3.08;;;2.70;99.90;;;;;;5040967;28;20102;-83
2023/01/31 03:06:10;;;;;;;13.52;2.97;;;2.70;99.90;;;;;;5042346;28;20032;-82
2023/01/31 03:08:40;;;;;;;12.65;2.80;;;2.80;99.90;;;;;;5042092;28;20075;-82
2023/01/31 03:11:07;;;;;;;11.15;2.10;;;2.80;99.90;;;;;;5041786;28;20413;-82
2023/01/31 03:14:14;;;;;;;16.63;3.72;;;2.80;99.90;;;;;;5063131;28;20047;-82
2023/01/31 03:19:49;;;;;;;14.07;2.90;;;2.80;99.90;;;;;;5009857;28;20046;-82
2023/01/31 03:22:22;;;;;;;12.82;3.05;;;2.80;99.90;;;;;;5080605;28;20044;-83
2023/01/31 03:24:49;;;;;;;;;;;2.80;99.90;;;;;;5060971;28;20082;-82
2023/01/31 03:27:15;;;;;;;9.55;3.03;;;2.90;99.90;;;;;;5063693;28;19920;-83
2023/01/31 03:29:42;;;;;;;12.13;3.20;;;2.90;99.90;;;;;;5077183;28;20032;-82
2023/01/31 03:32:23;;;;;;;11.43;3.67;;;2.90;99.90;;;;;;5060735;28;20047;-82
2023/01/31 03:34:50;;;;;;;15.82;2.85;;;3.00;99.90;;;;;;5051949;28;20036;-82
2023/01/31 03:37:20;;;;;;;14.80;3.13;;;3.00;99.90;;;;;;5059414;28;20047;-82
2023/01/31 03:39:49;;;;;;;19.02;3.25;;;3.10;99.90;;;;;;5060972;28;20477;-82
2023/01/31 03:42:35;;;;;;;12.05;2.55;;;3.10;99.90;;;;;;5078256;28;20043;-82
2023/01/31 03:45:05;;;;;;;13.93;2.60;;;3.10;99.90;;;;;;5039097;28;20405;-82
2023/01/31 03:47:40;;;;;;;12.13;3.10;;;3.20;99.90;;;;;;5076711;28;20040;-83
2023/01/31 03:50:16;;;;;;;13.52;3.00;;;3.20;99.90;;;;;;5057892;28;20048;-82
2023/01/31 03:52:54;;;;;;;9.88;3.13;;;3.20;99.90;;;;;;5072892;28;20516;-83
2023/01/31 03:55:29;;;;;;;10.45;3.28;;;3.30;99.90;;;;;;5076777;28;20040;-82
2023/01/31 03:57:57;;;;;;;13.13;3.13;;;3.30;99.90;;;;;;5059598;28;20418;-82
2023/01/31 04:00:24;;;;;;;10.98;3.75;;;3.40;99.90;;;;;;5076145;28;20514;-82
2023/01/31 04:03:03;;;;;;;23.05;9.40;;;3.40;99.90;;;;;;5075786;28;20166;-82
2023/01/31 04:05:31;;;;;;;29.98;9.82;;;3.40;99.90;;;;;;5075355;28;20039;-82
2023/01/31 04:07:58;;;;;;;30.83;12.60;;;3.50;99.90;;;;;;5059631;28;20133;-82
2023/01/31 04:10:25;;;;;;;12.65;4.40;;;3.50;99.90;;;;;;5075769;28;20044;-82
2023/01/31 04:12:51;;;;;;;15.48;5.68;;;3.60;99.90;;;;;;5075458;28;20035;-82
2023/01/31 04:15:17;;;;;;;16.67;4.05;;;3.60;99.90;;;;;;5075597;28;20564;-82
2023/01/31 04:17:43;;;;;;;17.35;5.43;;;3.60;99.90;;;;;;5075724;28;20127;-82
2023/01/31 04:20:09;;;;;;;18.20;7.05;;;3.70;99.90;;;;;;5075166;28;20039;-82
2023/01/31 04:22:35;;;;;;;17.45;6.30;;;3.70;99.90;;;;;;5057979;28;20492;-83
2023/01/31 04:25:01;;;;;;;22.75;9.93;;;3.80;99.90;;;;;;5074197;28;20036;-82
2023/01/31 04:27:26;;;;;;;19.02;6.63;;;3.80;99.90;;;;;;5074920;28;20131;-83
2023/01/31 04:29:52;;;;;;;20.38;7.05;;;3.80;99.90;;;;;;5058411;28;20532;-82
2023/01/31 04:32:18;;;;;;;19.05;6.28;;;3.90;99.90;;;;;;5073709;28;20622;-83
2023/01/31 04:34:43;;;;;;;16.55;4.63;;;3.90;99.90;;;;;;5074214;28;20043;-83
2023/01/31 04:37:09;;;;;;;11.85;4.40;;;4.00;99.90;;;;;;5058204;28;20503;-82
2023/01/31 04:39:34;;;;;;;12.98;4.03;;;3.90;99.90;;;;;;5074303;28;20036;-82
2023/01/31 04:42:00;;;;;;;13.77;4.03;;;3.90;99.90;;;;;;5074611;28;20096;-83
2023/01/31 04:44:26;;;;;;;17.15;3.53;;;3.90;99.90;;;;;;5079770;28;20047;-81
2023/01/31 04:46:51;;;;;;;9.27;3.10;;;3.90;99.90;;;;;;5079175;28;20122;-83
2023/01/31 04:49:17;;;;;;;15.93;3.50;;;3.80;99.90;;;;;;5078810;28;20074;-83
2023/01/31 04:51:43;;;;;;;16.88;3.95;;;3.80;99.90;;;;;;5066441;28;20397;-82
2023/01/31 04:54:08;;;;;;;11.88;3.20;;;3.90;99.90;;;;;;5076538;28;20058;-82
2023/01/31 04:56:34;;;;;;;17.75;4.13;;;3.90;99.90;;;;;;5075234;28;20036;-82
2023/01/31 04:59:00;;;;;;;21.42;3.78;;;3.90;99.90;;;;;;5058799;28;20067;-83
2023/01/31 05:01:25;;;;;;;17.50;4.47;;;3.90;99.90;;;;;;5075360;28;20443;-83
2023/01/31 05:03:51;;;;;;;16.02;3.45;;;3.90;99.90;;;;;;5073186;28;20119;-83
2023/01/31 05:06:17;;;;;;;14.32;3.70;;;3.90;99.90;;;;;;5058397;28;20036;-83
2023/01/31 05:08:43;;;;;;;15.73;3.80;;;3.90;99.90;;;;;;5057597;28;20031;-83
2023/01/31 05:11:09;;;;;;;14.90;4.15;;;3.90;99.90;;;;;;5074619;28;20032;-83
2023/01/31 05:13:38;;;;;;;15.45;4.57;;;3.90;99.90;;;;;;5073941;28;20105;-83
2023/01/31 05:16:09;;;;;;;21.60;4.93;;;3.90;99.90;;;;;;5057786;28;20130;-82
2023/01/31 05:18:35;;;;;;;16.38;4.57;;;4.00;99.90;;;;;;5074148;28;20048;-83
2023/01/31 05:21:02;;;;;;;20.00;4.82;;;4.00;99.90;;;;;;5074690;28;20043;-83
2023/01/31 05:23:28;;;;;;;17.35;4.25;;;4.10;99.90;;;;;;5073950;28;20398;-82
2023/01/31 05:25:57;;;;;;;25.73;5.95;;;4.10;99.90;;;;;;5068428;28;20044;-83
2023/01/31 05:28:26;;;;;;;14.57;4.05;;;4.30;99.90;;;;;;5074234;28;20040;-83
2023/01/31 05:30:53;;;;;;;16.08;5.07;;;4.40;99.90;;;;;;5074051;28;20067;-83
2023/01/31 05:33:21;;;;;;;23.30;6.05;;;4.50;99.90;;;;;;5056549;28;20048;-83
2023/01/31 05:35:50;;;;;;;15.88;5.20;;;4.50;99.90;;;;;;5079262;28;20096;-82
2023/01/31 05:38:15;;;;;;;23.17;5.53;;;4.60;99.90;;;;;;5091883;28;20032;-84
2023/01/31 05:40:41;;;;;;;24.45;6.35;;;4.70;99.90;;;;;;5075467;28;20613;-81
2023/01/31 05:43:07;;;;;;;23.30;5.80;;;4.70;99.90;;;;;;5088014;28;20051;-82
2023/01/31 05:45:33;;;;;;;34.00;6.57;;;4.70;99.90;;;;;;5079635;28;20032;-82
2023/01/31 05:47:58;;;;;;;25.42;6.35;;;4.80;99.90;;;;;;5078498;28;20524;-82
2023/01/31 05:50:26;;;;;;;19.65;5.25;;;5.00;99.90;;;;;;5076860;28;20048;-82
2023/01/31 05:53:03;;;;;;;18.83;5.72;;;4.90;99.90;;;;;;5059324;28;20032;-83
2023/01/31 05:55:29;;;;;;;22.08;5.72;;;4.90;99.90;;;;;;5079440;28;20060;-83
2023/01/31 05:57:56;;;;;;;21.42;6.85;;;5.00;99.90;;;;;;5078099;28;20417;-83
2023/01/31 06:00:22;;;;;;;25.05;8.00;;;5.00;99.90;;;;;;5061271;28;20040;-83
2023/01/31 06:02:51;;;;;;;22.98;6.32;;;5.00;99.90;;;;;;5076641;28;20028;-83
2023/01/31 06:05:17;;;;;;;21.30;6.97;;;5.00;99.90;;;;;;5059502;28;20059;-83
2023/01/31 06:07:46;;;;;;;26.05;7.60;;;5.00;99.90;;;;;;5077018;28;20040;-83
2023/01/31 06:10:15;;;;;;;24.40;7.38;;;5.10;99.90;;;;;;5059710;28;20097;-83
2023/01/31 06:12:40;;;;;;;28.58;7.28;;;5.10;99.90;;;;;;5059391;28;20056;-83
2023/01/31 06:15:09;;;;;;;19.90;8.15;;;5.20;99.90;;;;;;5062692;28;20040;-83
2023/01/31 06:17:34;;;;;;;24.25;7.43;;;5.20;99.90;;;;;;5080846;28;20036;-83
2023/01/31 06:20:04;;;;;;;26.00;8.57;;;5.20;99.90;;;;;;5079922;28;20185;-83
2023/01/31 06:22:32;;;;;;;28.67;9.25;;;5.30;99.90;;;;;;5080262;28;20040;-83
2023/01/31 06:24:58;;;;;;;25.63;8.38;;;5.30;99.90;;;;;;5080400;28;20059;-83
2023/01/31 06:27:32;;;;;;;32.72;8.25;;;5.30;99.90;;;;;;5079024;28;20050;-83
2023/01/31 06:29:58;;;;;;;29.92;9.45;;;5.30;99.90;;;;;;5073901;28;20042;-82
2023/01/31 06:32:26;;;;;;;26.23;8.50;;;5.40;99.90;;;;;;5076993;28;20126;-83
2023/01/31 06:34:52;;;;;;;27.77;9.50;;;5.40;99.90;;;;;;5075000;28;20043;-83
2023/01/31 06:37:18;;;;;;;25.48;8.50;;;5.50;99.90;;;;;;5061684;28;20036;-84
2023/01/31 06:39:43;;;;;;;26.83;9.35;;;5.50;99.90;;;;;;5081183;28;20074;-83
2023/01/31 06:42:09;;;;;;;22.42;8.65;;;5.60;99.90;;;;;;5081212;28;20047;-85
2023/01/31 06:44:36;;;;;;;28.98;10.05;;;5.50;99.90;;;;;;5064403;28;20044;-82
2023/01/31 06:47:02;;;;;;;26.10;9.63;;;5.60;99.90;;;;;;5064028;28;20044;-84
2023/01/31 06:49:27;;;;;;;26.17;9.77;;;5.60;99.90;;;;;;5079483;28;20047;-85
2023/01/31 06:51:53;;;;;;;35.47;9.32;;;5.60;99.90;;;;;;5061904;28;20036;-84
2023/01/31 06:54:19;;;;;;;25.73;9.18;;;5.50;99.90;;;;;;5077165;28;20139;-84
2023/01/31 06:56:48;;;;;;;31.52;9.27;;;5.60;99.90;;;;;;5077375;28;20036;-84
2023/01/31 06:59:14;;;;;;;33.03;9.55;;;5.50;99.90;;;;;;5062172;28;20378;-85
2023/01/31 07:01:40;;;;;;;27.20;8.85;;;5.60;99.90;;;;;;5078464;28;20085;-84
2023/01/31 07:04:05;;;;;;;28.73;10.27;;;5.50;99.90;;;;;;5065675;28;20101;-82
2023/01/31 07:06:31;;;;;;;23.58;8.43;;;5.60;99.90;;;;;;5079521;28;20036;-83
2023/01/31 07:08:57;;;;;;;20.08;7.85;;;5.60;99.90;;;;;;5079510;28;20504;-83
2023/01/31 07:11:22;;;;;;;30.13;8.68;;;5.60;99.90;;;;;;5062815;28;20040;-81
2023/01/31 07:13:49;;;;;;;23.95;8.32;;;5.60;99.90;;;;;;5078550;28;20063;-82
2023/01/31 07:16:15;;;;;;;26.67;8.80;;;5.70;99.90;;;;;;5080549;28;20039;-82
2023/01/31 07:18:41;;;;;;;22.27;7.38;;;5.70;99.90;;;;;;5080214;28;20044;-83
2023/01/31 07:21:07;;;;;;;18.35;7.25;;;5.60;99.90;;;;;;5080949;28;20123;-82
2023/01/31 07:23:32;;;;;;;14.90;7.18;;;5.70;99.90;;;;;;5062920;28;20059;-82
2023/01/31 07:26:02;;;;;;;21.95;6.57;;;5.70;99.90;;;;;;5078550;28;20032;-80
2023/01/31 07:28:28;;;;;;;18.70;6.43;;;5.70;99.90;;;;;;5077170;28;20703;-83
2023/01/31 07:30:53;;;;;;;21.60;7.03;;;5.70;99.90;;;;;;5063035;28;20078;-83
2023/01/31 07:33:20;;;;;;;24.58;6.78;;;5.80;99.90;;;;;;5078668;28;20047;-81
2023/01/31 07:35:45;;;;;;;22.88;6.15;;;5.70;99.90;;;;;;5079572;28;20047;-83
2023/01/31 07:38:11;;;;;;;23.10;6.53;;;5.80;99.90;;;;;;5062257;28;20052;-83
2023/01/31 07:40:38;;;;;;;23.65;6.35;;;5.80;99.90;;;;;;5078523;28;20030;-83
2023/01/31 07:43:04;;;;;;;20.42;6.35;;;5.80;99.90;;;;;;5059524;28;20034;-83
2023/01/31 07:45:30;;;;;;;18.38;6.45;;;5.90;99.90;;;;;;5062298;28;20119;-83
2023/01/31 07:47:58;;;;;;;20.40;6.65;;;5.80;99.90;;;;;;5078445;28;20059;-83
2023/01/31 07:50:26;;;;;;;23.85;6.72;;;5.80;99.90;;;;;;5061582;28;20562;-83
2023/01/31 07:52:51;;;;;;;17.75;6.10;;;5.80;99.90;;;;;;5061432;28;20090;-82
2023/01/31 07:55:17;;;;;;;18.58;5.32;;;5.90;99.90;;;;;;5078465;28;20040;-83
2023/01/31 07:57:43;;;;;;;17.55;5.65;;;5.80;99.90;;;;;;5061044;28;20043;-82
2023/01/31 08:03:31;;;;;;;23.00;6.97;;;5.90;99.90;;;;;;5061606;28;20502;-82
2023/01/31 08:05:39;;;;;;;27.83;5.95;;;5.90;99.90;;;;;;5070165;28;20115;-83
2023/01/31 08:08:10;;;;;;;23.90;7.28;;;5.90;99.90;;;;;;5078188;28;20082;-82
2023/01/31 08:10:36;;;;;;;19.20;7.78;;;5.90;99.90;;;;;;5061575;28;20481;-83
2023/01/31 08:13:02;;;;;;;21.27;6.90;;;6.00;99.90;;;;;;5060370;28;20039;-83
2023/01/31 08:15:27;;;;;;;21.95;6.95;;;5.90;99.90;;;;;;5121425;23;20053;-37
2023/01/31 08:17:53;;;;;;;20.70;7.25;;;6.00;99.90;;;;;;5056321;28;20048;-37
2023/01/31 08:20:19;;;;;;;20.85;6.88;;;5.90;99.90;;;;;;5058214;28;20037;-37
2023/01/31 08:22:44;;;;;;;18.52;6.00;;;5.90;99.90;;;;;;5061140;28;20044;-37
2023/01/31 08:25:10;;;;;;;23.65;7.10;;;6.00;99.90;;;;;;5072274;28;20056;-37
2023/01/31 08:27:36;;;;;;;23.08;6.97;;;6.00;99.90;;;;;;5077298;28;20040;-37
2023/01/31 08:30:02;;;;;;;25.30;7.68;;;6.00;99.90;;;;;;5065272;28;20181;-38
2023/01/31 08:32:27;;;;;;;18.92;6.68;;;6.00;99.90;;;;;;5062361;28;20071;-38
2023/01/31 08:34:53;;;;;;;19.20;6.88;;;6.00;99.90;;;;;;5070809;28;20032;-37
2023/01/31 08:37:19;;;;;;;20.25;6.22;;;6.00;99.90;;;;;;5070578;28;20040;-37
2023/01/31 08:39:46;;;;;;;20.13;6.63;;;6.00;99.90;;;;;;5071206;28;20039;-38
2023/01/31 08:42:11;;;;;;;25.58;10.77;;;6.00;99.90;;;;;;5070591;28;20040;-38
2023/01/31 08:44:37;;;;;;;19.77;6.70;;;6.00;99.90;;;;;;5059132;28;20032;-38
2023/01/31 08:47:03;;;;;;;20.27;8.63;;;6.00;99.90;;;;;;5064369;28;20041;-38
2023/01/31 08:49:29;;;;;;;16.77;6.57;;;6.00;99.90;;;;;;5070450;28;20552;-38
2023/01/31 08:51:54;;;;;;;22.48;6.95;;;6.00;99.90;;;;;;5070813;28;20040;-38
2023/01/31 08:54:20;;;;;;;21.23;6.68;;;6.10;99.90;;;;;;5067116;28;20048;-38
2023/01/31 08:56:46;;;;;;;20.95;7.18;;;6.00;99.90;;;;;;5052832;28;20043;-40
2023/01/31 08:59:11;;;;;;;18.08;6.60;;;6.00;99.90;;;;;;5069801;28;20044;-38
2023/01/31 09:01:38;;;;;;;19.55;7.20;;;6.00;99.90;;;;;;5070427;28;20033;-38
2023/01/31 09:04:04;;;;;;;16.52;6.60;;;6.00;99.90;;;;;;5069953;28;20082;-38
2023/01/31 09:06:29;;;;;;;21.83;8.18;;;6.10;99.90;;;;;;5070142;28;20036;-38
2023/01/31 09:08:56;;;;;;;20.95;7.85;;;6.10;99.90;;;;;;5060583;28;20036;-38
2023/01/31 09:11:22;;;;;;;20.77;6.60;;;6.10;99.90;;;;;;5070682;28;20036;-38
2023/01/31 09:13:51;;;;;;;22.77;7.07;;;6.10;99.90;;;;;;5069532;28;20043;-38
2023/01/31 09:16:18;;;;;;;20.85;7.00;;;6.10;99.90;;;;;;5084453;28;20036;-39
2023/01/31 09:18:43;;;;;;;18.50;7.00;;;6.10;99.90;;;;;;5072630;28;20051;-36
2023/01/31 09:21:20;;;;;;;17.15;7.00;;;6.10;99.90;;;;;;5090677;28;20028;-36
2023/01/31 09:23:48;;;;;;;17.67;6.68;;;6.20;99.90;;;;;;5089597;28;20028;-36
2023/01/31 09:26:16;;;;;;;18.92;6.47;;;6.20;99.90;;;;;;5071997;28;20065;-37
2023/01/31 09:28:42;;;;;;;19.83;6.95;;;6.20;99.90;;;;;;5082091;28;20040;-39
2023/01/31 09:31:13;;;;;;;16.73;6.05;;;6.30;99.90;;;;;;5090321;28;20043;-39
2023/01/31 09:33:39;;;;;;;13.48;5.20;;;6.30;99.90;;;;;;5090150;28;20400;-37
2023/01/31 09:36:11;;;;;;;15.30;6.35;;;6.30;99.90;;;;;;5092044;28;20109;-39
2023/01/31 09:38:37;;;;;;;19.80;7.13;;;6.40;99.90;;;;;;5090627;28;20408;-40
2023/01/31 09:41:16;;;;;;;15.40;5.28;;;6.40;99.90;;;;;;5090458;28;20489;-42
2023/01/31 09:43:48;;;;;;;16.75;6.03;;;6.50;99.90;;;;;;5090257;28;20059;-46
2023/01/31 09:46:17;;;;;;;17.63;5.93;;;6.50;99.90;;;;;;5091340;28;20036;-39
2023/01/31 09:48:47;;;;;;;12.13;4.93;;;6.60;99.90;;;;;;5056551;28;20035;-40
2023/01/31 09:51:15;;;;;;;14.15;4.65;;;6.60;99.90;;;;;;5095391;28;20415;-40
2023/01/31 09:53:41;;;;;;;16.65;6.47;;;6.70;99.90;;;;;;5095077;28;20040;-37
2023/01/31 09:56:56;;;;;;;14.77;5.07;;;6.70;99.90;;;;;;5098826;28;20040;-37
2023/01/31 09:59:28;;;;;;;12.52;5.57;;;6.80;99.90;;;;;;5048944;28;20103;-38
2023/01/31 10:01:56;;;;;;;18.67;6.15;;;6.80;99.90;;;;;;5096475;28;20382;-37
2023/01/31 10:04:54;;;;;;;15.82;7.43;;;6.90;99.90;;;;;;5096018;28;20066;-38
2023/01/31 10:07:28;;;;;;;19.63;6.90;;;6.90;99.90;;;;;;5096266;28;20062;-38
2023/01/31 10:10:21;;;;;;;16.33;5.75;;;6.90;99.90;;;;;;5096370;28;20043;-38
2023/01/31 10:12:58;;;;;;;16.38;5.22;;;6.90;99.90;;;;;;5094342;28;20040;-38
2023/01/31 10:15:39;;;;;;;17.38;5.32;;;6.90;99.90;;;;;;5095829;28;20032;-38
2023/01/31 10:18:31;;;;;;;16.65;5.30;;;6.90;99.90;;;;;;5085081;28;20084;-38
2023/01/31 10:21:03;;;;;;;14.48;4.97;;;7.00;99.90;;;;;;5092576;28;20055;-38
2023/01/31 10:23:43;;;;;;;16.25;4.93;;;6.90;99.90;;;;;;5095385;28;20028;-38
2023/01/31 10:26:25;;;;;;;14.70;4.57;;;7.00;99.90;;;;;;5095606;28;20055;-38
2023/01/31 10:29:11;;;;;;;16.85;5.80;;;7.00;99.90;;;;;;5088541;28;20059;-38
2023/01/31 10:31:54;;;;;;;19.65;4.78;;;7.00;99.90;;;;;;5093817;28;20123;-38
2023/01/31 10:34:28;;;;;;;16.50;5.03;;;7.00;99.90;;;;;;5087620;28;20044;-38
2023/01/31 10:37:04;;;;;;;15.70;4.38;;;7.00;99.90;;;;;;5094610;28;20036;-38
2023/01/31 10:39:32;;;;;;;13.02;4.43;;;7.00;99.90;;;;;;5094025;28;20504;-38
2023/01/31 10:42:22;;;;;;;12.38;3.90;;;7.00;99.90;;;;;;5094104;28;20507;-38
2023/01/31 10:44:54;;;;;;;15.48;4.63;;;7.00;99.90;;;;;;5074770;28;20032;-38
2023/01/31 10:47:31;;;;;;;12.48;4.97;;;7.00;99.90;;;;;;5094887;28;20028;-38
2023/01/31 10:49:57;;;;;;;12.52;4.43;;;7.00;99.90;;;;;;5093302;28;20048;-38
2023/01/31 10:52:50;;;;;;;15.55;4.78;;;7.00;99.90;;;;;;5093179;28;20074;-38
2023/01/31 10:55:22;;;;;;;14.93;4.18;;;7.00;99.90;;;;;;5094260;28;20044;-38
2023/01/31 10:57:49;;;;;;;13.43;5.03;;;7.10;99.90;;;;;;5088331;28;20119;-38
2023/01/31 11:00:35;;;;;;;19.85;5.10;;;7.00;99.90;;;;;;5076681;28;20039;-38
2023/01/31 11:03:00;;;;;;;25.67;5.68;;;7.00;99.90;;;;;;5087936;28;20083;-38
2023/01/31 11:05:29;;;;;;;12.55;4.35;;;7.00;99.90;;;;;;5093920;28;20058;-38
2023/01/31 11:08:00;;;;;;;12.20;4.80;;;7.00;99.90;;;;;;5093459;28;20552;-38
2023/01/31 11:10:28;;;;;;;16.63;5.20;;;7.00;99.90;;;;;;5093101;28;20488;-38
2023/01/31 11:13:03;;;;;;;19.92;6.18;;;7.00;99.90;;;;;;5092834;28;20366;-38
2023/01/31 11:15:38;;;;;;;18.38;5.47;;;6.90;99.90;;;;;;5076919;28;20086;-37
2023/01/31 11:18:04;;;;;;;15.98;5.07;;;6.90;99.90;;;;;;5094128;28;20119;-36
2023/01/31 11:20:36;;;;;;;17.60;6.22;;;6.90;99.90;;;;;;5072735;28;20452;-39
2023/01/31 11:23:05;;;;;;;14.27;5.53;;;6.80;99.90;;;;;;5076901;28;20129;-39
2023/01/31 11:25:32;;;;;;;20.05;6.40;;;6.80;99.90;;;;;;5074833;28;20119;-44
2023/01/31 11:28:02;;;;;;;20.38;6.28;;;6.80;99.90;;;;;;5089372;28;20036;-46
2023/01/31 11:30:33;;;;;;;16.58;6.97;;;6.90;99.90;;;;;;5063791;28;20052;-38
2023/01/31 11:33:00;;;;;;;23.45;6.10;;;6.90;99.90;;;;;;5056622;28;20040;-39
2023/01/31 11:35:34;;;;;;;17.48;6.15;;;6.90;99.90;;;;;;5079192;28;20043;-41
2023/01/31 11:38:16;;;;;;;17.15;6.03;;;7.00;99.90;;;;;;5078950;28;20072;-41
2023/01/31 11:40:42;;;;;;;15.25;5.05;;;7.00;99.90;;;;;;5082667;28;20477;-41
2023/01/31 11:43:20;;;;;;;15.40;5.97;;;7.00;99.90;;;;;;5083077;28;20085;-45
2023/01/31 11:45:56;;;;;;;21.80;7.68;;;7.10;99.90;;;;;;5069911;28;20137;-44
2023/01/31 11:48:25;;;;;;;21.42;7.57;;;7.10;99.90;;;;;;5080563;28;20113;-48
2023/01/31 11:50:54;;;;;;;19.80;5.57;;;7.10;99.90;;;;;;5077298;28;20047;-39
2023/01/31 11:53:28;;;;;;;14.18;6.10;;;7.10;99.90;;;;;;5071934;28;20078;-40
2023/01/31 11:55:57;;;;;;;13.68;5.63;;;7.10;99.90;;;;;;5077718;28;20126;-47
2023/01/31 11:58:32;;;;;;;22.45;6.47;;;7.10;99.90;;;;;;5077656;28;20111;-40
2023/01/31 12:01:04;;;;;;;18.23;6.35;;;7.10;99.90;;;;;;5078154;28;20436;-39
2023/01/31 12:03:30;;;;;;;19.98;6.43;;;7.10;99.90;;;;;;5086245;28;20123;-46
2023/01/31 12:06:08;;;;;;;19.45;5.75;;;7.20;99.90;;;;;;5056419;28;20044;-44
2023/01/31 12:08:43;;;;;;;15.52;5.28;;;7.20;99.90;;;;;;5092027;28;20036;-40
2023/01/31 12:11:29;;;;;;;15.13;5.10;;;7.20;99.90;;;;;;5092065;28;20062;-41
2023/01/31 12:14:16;;;;;;;14.32;4.90;;;7.30;99.90;;;;;;5087272;28;20127;-41
2023/01/31 12:16:43;;;;;;;15.85;4.72;;;7.30;99.90;;;;;;5084051;28;20405;-40
2023/01/31 12:19:11;;;;;;;18.52;5.15;;;7.30;99.90;;;;;;5090155;28;20443;-41
2023/01/31 12:22:03;;;;;;;19.42;4.93;;;7.40;99.90;;;;;;5091935;28;20035;-40
2023/01/31 12:24:53;;;;;;;16.13;5.45;;;7.50;99.90;;;;;;5090749;28;20043;-40
2023/01/31 12:27:27;;;;;;;14.82;4.72;;;7.60;99.90;;;;;;5088495;28;20043;-43
2023/01/31 12:30:28;;;;;;;14.27;4.00;;;7.60;99.90;;;;;;5090965;28;20493;-41
2023/01/31 12:33:04;;;;;;;21.27;4.97;;;7.70;99.90;;;;;;5084610;28;20079;-41
2023/01/31 12:36:07;;;;;;;16.73;4.40;;;7.70;99.90;;;;;;5071963;28;20609;-40
2023/01/31 12:38:46;;;;;;;13.38;5.80;;;7.80;99.90;;;;;;5090839;28;20609;-40
2023/01/31 12:41:17;;;;;;;15.95;4.60;;;7.80;99.90;;;;;;5091254;28;20075;-40
2023/01/31 12:44:14;;;;;;;18.15;4.35;;;7.80;99.90;;;;;;5090281;28;20071;-46
2023/01/31 12:47:03;;;;;;;14.88;4.45;;;7.90;99.90;;;;;;5082634;28;20032;-46
2023/01/31 12:49:53;;;;;;;18.35;6.72;;;7.90;99.90;;;;;;5090816;28;20040;-46
2023/01/31 12:52:41;;;;;;;19.65;4.82;;;7.90;99.90;;;;;;5090498;28;20376;-43
2023/01/31 12:55:19;;;;;;;17.60;4.78;;;7.90;99.90;;;;;;5091109;28;20541;-43
2023/01/31 12:58:00;;;;;;;13.52;4.03;;;8.00;99.90;;;;;;5083205;28;20455;-46
2023/01/31 13:00:49;;;;;;;16.55;4.50;;;8.00;99.90;;;;;;5072737;28;20099;-37
2023/01/31 13:03:45;;;;;;;13.35;4.22;;;8.00;99.90;;;;;;5080808;28;20649;-39
2023/01/31 13:06:22;;;;;;;16.10;4.88;;;8.10;99.90;;;;;;5082184;28;20124;-39
2023/01/31 13:09:09;;;;;;;11.27;4.75;;;8.10;99.90;;;;;;5084508;28;20028;-40
2023/01/31 13:11:43;;;;;;;14.65;3.75;;;8.10;99.90;;;;;;5089741;28;20040;-38
2023/01/31 13:14:29;;;;;;;;;;;8.20;99.90;;;;;;5072010;28;20036;-39
2023/01/31 13:16:59;;;;;;;12.18;3.60;;;8.20;99.90;;;;;;5074882;28;20006;-38
2023/01/31 13:20:09;;;;;;;13.93;4.55;;;8.30;99.90;;;;;;5070290;28;20075;-39
2023/01/31 13:22:45;;;;;;;16.52;4.47;;;8.40;99.90;;;;;;5044185;28;20400;-39
2023/01/31 13:25:37;;;;;;;10.10;3.95;;;8.50;99.90;;;;;;5069076;28;20094;-39
2023/01/31 13:28:10;;;;;;;12.02;3.78;;;8.80;99.90;;;;;;5061150;28;20049;-39
2023/01/31 13:30:50;;;;;;;12.57;4.37;;;9.70;99.90;;;;;;5062725;28;20056;-38
2023/01/31 13:33:24;;;;;;;10.48;3.53;;;9.80;99.90;;;;;;5059014;28;20048;-39
2023/01/31 13:36:28;;;;;;;9.13;3.97;;;9.80;99.90;;;;;;5069645;28;20087;-39
2023/01/31 13:38:56;;;;;;;12.02;3.65;;;9.80;99.90;;;;;;5051929;28;20060;-39
2023/01/31 13:41:25;;;;;;;9.00;3.35;;;9.80;99.90;;;;;;5051491;28;20059;-39
2023/01/31 13:43:51;;;;;;;10.80;3.15;;;9.70;99.90;;;;;;5069239;28;20495;-39
2023/01/31 13:46:23;;;;;;;15.23;3.78;;;9.60;99.90;;;;;;5069590;28;20098;-39
2023/01/31 13:48:58;;;;;;;11.05;3.42;;;9.40;99.90;;;;;;5069176;28;20131;-39
2023/01/31 13:52:01;;;;;;;12.45;3.55;;;9.30;99.90;;;;;;5069138;28;20063;-39
2023/01/31 13:54:33;;;;;;;15.25;3.67;;;9.10;99.90;;;;;;5056596;28;20060;-39
2023/01/31 13:57:01;;;;;;;12.25;3.88;;;8.90;99.90;;;;;;5062859;28;20044;-39
2023/01/31 13:59:31;;;;;;;13.45;3.60;;;8.90;99.90;;;;;;5069068;28;20032;-37
2023/01/31 14:01:59;;;;;;;11.15;3.40;;;8.90;99.90;;;;;;5067912;28;20355;-37
2023/01/31 14:04:34;;;;;;;16.60;3.72;;;8.80;99.90;;;;;;5068761;28;20072;-37
2023/01/31 14:07:04;;;;;;;15.57;3.60;;;8.80;99.90;;;;;;5056833;28;20037;-38
2023/01/31 14:09:35;;;;;;;13.45;3.08;;;8.80;99.90;;;;;;5076017;28;20037;-39
2023/01/31 14:12:21;;;;;;;12.18;3.15;;;8.70;99.90;;;;;;5069372;28;20417;-38